KHSB/HSB METAR and TAF weather

Enter ICAO airport designator
Station Type Date Time Source
KHSB METAR 2020/10/22 02:55 UTC NOAA

KHSB 220255Z AUTO 00000KT 1SM BR VV007 15/12 A3013 RMK AO2 T01460123


Station Type Date Time Source
KHSB Decoded METAR 2020/10/22 02:55 UTC NOAA

Harrisburg, Harrisburg-Raleigh Airport, IL, United States (KHSB) 37-48-41N 088-32-57W
Oct 21, 2020 - 10:55 PM EDT / 2020.10.22 0255 UTC
Wind: Calm:0
Visibility: 1 mile(s):0
Sky conditions: obscured
Weather: mist
Temperature: 58.3 F (14.6 C)
Dew Point: 54.1 F (12.3 C)
Relative Humidity: 86%
Pressure (altimeter): 30.13 in. Hg (1020 hPa)
ob: KHSB 220255Z AUTO 00000KT 1SM BR VV007 15/12 A3013 RMK AO2 T01460123
cycle: 3

Station Type Date Time Source
KHSB TAF UTC NOAA

Error!

Example: see airport list